Chrisman, Illinois
Current Conditions -  °F | °C
As of 9:15 AM on Wednesday 22 Oct 2014 (Local Time) from KPRG Reporting Station
Clear Clear  
Wind Chill: 46°   Ceiling: Unl
Heat Index: 46°   Visibility: 10mi
Dew Point: 40°   Wind: 0mph
Humidity: 79%   Direction: NA
Pressure: 30.35"   Gusts: NA
Location:  39.8°N, 87.67°W
Report Text: KPRG 221415Z AUTO 00000KT 10SM CLR 08/05 A3035 RMK AO2 T00800046
Loading
Personal Weather Stations






























Interactive Weather Map
Tropical Storm Tracking
New forecast layout! Learn more

10-Day Weather Forecast

Advertisements
Track Severe Weather on mobile